createdAt,value
2019-01-05T16:51:11.340Z,11.87
2019-01-05T16:57:34.605Z,11.13
2019-01-05T17:04:02.243Z,11.67
2019-01-05T17:10:42.175Z,12.20
2019-01-05T17:17:12.938Z,10.80
2019-01-05T17:23:37.552Z,13.67
2019-01-05T17:30:02.279Z,13.07
2019-01-05T17:36:41.795Z,13.77
2019-01-05T17:43:12.295Z,11.47
2019-01-05T17:49:39.698Z,12.57
2019-01-05T17:56:19.680Z,9.97
2019-01-05T18:02:49.976Z,11.57
2019-01-05T18:09:26.631Z,11.57
2019-01-05T18:15:48.496Z,10.33
2019-01-05T18:22:13.226Z,11.47
2019-01-05T18:28:45.917Z,10.87
2019-01-05T18:35:28.468Z,13.03
2019-01-05T18:41:56.122Z,11.87
2019-01-05T18:48:31.129Z,12.13
2019-01-05T18:54:54.183Z,13.47
2019-01-05T19:01:19.451Z,12.63
2019-01-05T19:07:50.045Z,14.10
2019-01-05T19:14:20.656Z,14.97
2019-01-05T19:20:47.858Z,14.40
2019-01-05T19:27:16.151Z,14.00
2019-01-05T19:33:39.364Z,15.27
2019-01-05T19:40:13.331Z,16.03
2019-01-05T19:46:55.917Z,14.20
2019-01-05T19:53:35.546Z,13.10
2019-01-05T19:59:58.925Z,13.30
2019-01-05T20:06:23.720Z,14.40
2019-01-05T20:12:54.620Z,13.27
2019-01-05T20:19:19.286Z,13.73
2019-01-05T20:25:47.132Z,14.93
2019-01-05T20:32:11.745Z,16.03
2019-01-05T20:38:35.270Z,14.73
2019-01-05T20:45:05.537Z,16.37
2019-01-05T20:51:33.095Z,13.73
2019-01-05T20:58:04.437Z,11.70
2019-01-05T21:04:25.160Z,14.87
2019-01-05T21:10:57.299Z,15.23
2019-01-05T21:17:39.795Z,15.03
2019-01-05T21:24:13.394Z,16.00
2019-01-05T21:30:36.489Z,14.67
2019-01-05T21:36:59.856Z,12.93
2019-01-05T21:43:27.526Z,12.50
2019-01-05T21:49:55.168Z,12.50
2019-01-05T21:56:19.747Z,13.17
2019-01-05T22:02:43.383Z,15.20
2019-01-05T22:09:16.902Z,12.90
2019-01-05T22:15:59.722Z,16.03
2019-01-05T22:22:31.191Z,15.50
2019-01-05T22:29:03.064Z,13.00
2019-01-05T22:35:20.568Z,14.27
2019-01-05T22:41:43.681Z,14.43
2019-01-05T22:48:07.249Z,11.17
2019-01-05T22:54:29.425Z,11.77
2019-01-05T23:01:02.878Z,11.10
2019-01-05T23:07:42.876Z,11.53
2019-01-05T23:14:10.498Z,9.60
2019-01-05T23:20:34.080Z,11.10
2019-01-05T23:26:57.415Z,11.30
2019-01-05T23:33:22.463Z,10.57
2019-01-05T23:39:45.959Z,11.20
2019-01-05T23:46:16.520Z,11.10
2019-01-05T23:52:40.146Z,10.70
2019-01-05T23:59:03.504Z,11.83
